Time;durP1;ratioP1;P1;durP2;ratioP2;P2;SDS_P1;SDS_P2;PMS_P1;PMS_P2;Temp;Humidity;BMP_temperature;BMP_pressure;BME280_temperature;BME280_humidity;BME280_pressure;Samples;Min_cycle;Max_cycle;Signal;HPM_P1;HPM_P2
2021/03/20 00:01:44;;;;;;;2.78;1.95;;;4.30;93.10;;;;;;5097288;28;20023;-89
2021/03/20 00:04:10;;;;;;;3.92;2.30;;;4.20;93.00;;;;;;5079072;28;20024;-89
2021/03/20 00:06:40;;;;;;;4.75;1.67;;;4.20;92.90;;;;;;5097243;28;20017;-89
2021/03/20 00:09:10;;;;;;;3.38;1.70;;;4.20;93.00;;;;;;5097085;28;20027;-89
2021/03/20 00:11:36;;;;;;;;;;;4.10;93.20;;;;;;5079430;28;20024;-88
2021/03/20 00:14:01;;;;;;;3.30;2.17;;;4.00;93.30;;;;;;5097187;28;19930;-89
2021/03/20 00:16:27;;;;;;;3.13;1.80;;;4.00;93.50;;;;;;5078794;28;20081;-89
2021/03/20 00:18:53;;;;;;;2.95;1.95;;;4.00;93.40;;;;;;5097073;28;20024;-89
2021/03/20 00:21:19;;;;;;;3.22;2.58;;;4.00;93.20;;;;;;5079175;28;20035;-89
2021/03/20 00:23:45;;;;;;;2.97;2.15;;;4.00;93.20;;;;;;5079035;28;20055;-89
2021/03/20 00:26:10;;;;;;;3.90;2.15;;;4.00;93.10;;;;;;5078978;28;20514;-90
2021/03/20 00:28:36;;;;;;;4.38;2.40;;;3.90;93.20;;;;;;5078939;28;20101;-90
2021/03/20 00:31:11;;;;;;;3.97;2.40;;;3.80;93.30;;;;;;5078486;28;20490;-91
2021/03/20 00:33:39;;;;;;;4.10;2.95;;;3.80;93.40;;;;;;5078631;28;20415;-89
2021/03/20 00:36:06;;;;;;;4.65;3.45;;;3.80;93.60;;;;;;5078550;28;20024;-89
2021/03/20 00:38:32;;;;;;;5.13;2.72;;;3.70;93.60;;;;;;5078541;28;20031;-90
2021/03/20 00:40:58;;;;;;;4.65;2.83;;;3.70;93.60;;;;;;5078497;28;20028;-90
2021/03/20 00:43:24;;;;;;;3.92;2.72;;;3.70;93.60;;;;;;5096477;28;20490;-89
2021/03/20 00:45:51;;;;;;;5.57;3.22;;;3.70;93.60;;;;;;5096526;28;20491;-89
2021/03/20 00:48:24;;;;;;;6.88;3.65;;;3.60;93.70;;;;;;5078614;28;20472;-89
2021/03/20 00:50:49;;;;;;;4.63;3.17;;;3.70;93.80;;;;;;5078734;28;20081;-89
2021/03/20 00:53:15;;;;;;;5.32;3.45;;;3.70;93.80;;;;;;5078625;28;20016;-90
2021/03/20 00:55:41;;;;;;;5.05;3.03;;;3.70;93.70;;;;;;5078518;28;20032;-89
2021/03/20 00:58:38;;;;;;;4.70;3.35;;;3.80;93.70;;;;;;5078442;28;20027;-89
2021/03/20 01:01:08;;;;;;;5.47;3.30;;;3.80;93.60;;;;;;5062253;28;20032;-90
2021/03/20 01:03:37;;;;;;;5.28;2.88;;;3.70;93.70;;;;;;5078023;28;20116;-90
2021/03/20 01:06:04;;;;;;;5.25;2.97;;;3.60;93.70;;;;;;5078245;28;20491;-90
2021/03/20 01:08:30;;;;;;;5.78;2.90;;;3.60;93.80;;;;;;5096014;28;20016;-89
2021/03/20 01:10:55;;;;;;;4.60;3.30;;;3.50;93.90;;;;;;5096211;28;20024;-89
2021/03/20 01:13:21;;;;;;;5.97;3.22;;;3.60;94.00;;;;;;5095850;28;20103;-90
2021/03/20 01:15:47;;;;;;;4.72;3.10;;;3.60;94.00;;;;;;5078152;28;20096;-90
2021/03/20 01:18:13;;;;;;;4.47;2.75;;;3.60;94.10;;;;;;5095883;28;20024;-88
2021/03/20 01:20:39;;;;;;;4.90;3.08;;;3.60;94.10;;;;;;5077707;28;20047;-90
2021/03/20 01:23:05;;;;;;;4.72;2.83;;;3.60;94.00;;;;;;5095733;28;20024;-89
2021/03/20 01:25:32;;;;;;;5.03;3.20;;;3.50;94.10;;;;;;5095486;28;20533;-89
2021/03/20 01:27:58;;;;;;;5.65;3.33;;;3.40;94.20;;;;;;5077628;28;20020;-89
2021/03/20 01:30:27;;;;;;;4.50;3.20;;;3.40;94.30;;;;;;5077750;28;20480;-90
2021/03/20 01:32:53;;;;;;;5.67;3.60;;;3.40;94.40;;;;;;5077465;28;20051;-89
2021/03/20 01:35:19;;;;;;;4.97;3.28;;;3.30;94.40;;;;;;5077320;28;20035;-90
2021/03/20 01:37:45;;;;;;;4.65;3.42;;;3.40;94.40;;;;;;5077829;28;20024;-89
2021/03/20 01:40:12;;;;;;;5.38;3.28;;;3.40;94.40;;;;;;5077431;28;20024;-90
2021/03/20 01:42:45;;;;;;;5.15;3.30;;;3.30;94.30;;;;;;5076868;28;20031;-89
2021/03/20 01:45:13;;;;;;;5.22;3.38;;;3.40;94.40;;;;;;5076358;28;20028;-89
2021/03/20 01:48:12;;;;;;;4.65;2.97;;;3.30;94.40;;;;;;5095105;28;20028;-89
2021/03/20 01:50:50;;;;;;;5.72;3.13;;;3.40;94.40;;;;;;5077107;28;20030;-89
2021/03/20 01:53:21;;;;;;;5.45;3.80;;;3.20;94.40;;;;;;5077207;28;20062;-90
2021/03/20 01:55:47;;;;;;;4.10;2.90;;;3.20;94.50;;;;;;5077111;28;20388;-89
2021/03/20 01:58:14;;;;;;;7.07;3.03;;;3.20;94.50;;;;;;5077160;28;20019;-89
2021/03/20 02:00:42;;;;;;;5.18;3.20;;;3.20;94.50;;;;;;5077034;28;20044;-89
2021/03/20 02:03:16;;;;;;;7.10;3.13;;;3.20;94.50;;;;;;5094964;28;20020;-89
2021/03/20 02:05:43;;;;;;;5.57;3.67;;;3.10;94.50;;;;;;5094824;28;20028;-89
2021/03/20 02:08:11;;;;;;;6.97;4.18;;;3.10;94.50;;;;;;5077008;28;20028;-89
2021/03/20 02:10:39;;;;;;;6.35;3.90;;;3.10;94.60;;;;;;5076861;28;20559;-90
2021/03/20 02:13:17;;;;;;;5.95;4.20;;;3.00;94.60;;;;;;5076820;28;20028;-89
2021/03/20 02:15:50;;;;;;;4.82;3.72;;;3.00;94.70;;;;;;5076894;28;20032;-89
2021/03/20 02:18:43;;;;;;;4.43;3.38;;;3.00;94.70;;;;;;5094598;28;20070;-90
2021/03/20 02:21:27;;;;;;;5.95;3.63;;;3.00;94.70;;;;;;5077153;28;20127;-90
2021/03/20 02:24:30;;;;;;;4.88;3.88;;;3.00;94.70;;;;;;5094494;28;20024;-88
2021/03/20 02:27:25;;;;;;;4.28;3.22;;;3.00;94.60;;;;;;5076485;28;20046;-89
2021/03/20 02:30:14;;;;;;;5.45;3.58;;;2.90;94.70;;;;;;5076900;28;20027;-89
2021/03/20 02:33:05;;;;;;;5.43;3.40;;;2.90;94.80;;;;;;5076446;28;20023;-89
2021/03/20 02:36:08;;;;;;;5.53;4.18;;;2.90;94.90;;;;;;5094719;28;20074;-89
2021/03/20 02:38:56;;;;;;;5.47;3.72;;;2.80;94.90;;;;;;5052571;28;20028;-89
2021/03/20 02:41:56;;;;;;;5.65;3.58;;;2.70;95.10;;;;;;5094442;28;20030;-90
2021/03/20 02:44:24;;;;;;;;;;;2.70;95.20;;;;;;5076722;28;20031;-89
2021/03/20 02:46:56;;;;;;;5.40;3.85;;;2.60;95.20;;;;;;5076032;28;19915;-89
2021/03/20 02:49:43;;;;;;;7.95;4.95;;;2.60;95.40;;;;;;5076416;28;20020;-89
2021/03/20 02:52:23;;;;;;;6.20;4.28;;;2.60;95.30;;;;;;5076329;28;20056;-89
2021/03/20 02:55:00;;;;;;;;;;;2.60;95.20;;;;;;5094377;28;20024;-89
2021/03/20 02:57:32;;;;;;;3.80;2.85;;;2.60;95.20;;;;;;5076438;28;19904;-89
2021/03/20 03:00:05;;;;;;;4.88;3.47;;;2.50;95.30;;;;;;5076241;28;20503;-89
2021/03/20 03:02:32;;;;;;;5.78;3.65;;;2.50;95.20;;;;;;5076346;28;20046;-89
2021/03/20 03:05:06;;;;;;;4.72;3.95;;;2.50;95.20;;;;;;5075939;28;20031;-89
2021/03/20 03:07:46;;;;;;;5.07;3.28;;;2.40;95.20;;;;;;5094398;28;20028;-89
2021/03/20 03:10:29;;;;;;;;;;;2.40;95.30;;;;;;5076526;28;20024;-90
2021/03/20 03:13:12;;;;;;;5.68;3.65;;;2.30;95.40;;;;;;5094087;28;20287;-90
2021/03/20 03:15:48;;;;;;;6.18;3.58;;;2.30;95.60;;;;;;5076023;28;20115;-89
2021/03/20 03:18:21;;;;;;;6.07;3.50;;;2.30;95.60;;;;;;5092726;28;20035;-89
2021/03/20 03:20:50;;;;;;;5.28;3.38;;;2.20;95.50;;;;;;5092898;28;20027;-90
2021/03/20 03:23:22;;;;;;;4.57;3.35;;;2.20;95.50;;;;;;5092578;28;20031;-90
2021/03/20 03:26:00;;;;;;;6.70;3.20;;;2.20;95.50;;;;;;5076567;28;20059;-89
2021/03/20 03:28:28;;;;;;;4.45;3.15;;;2.20;95.50;;;;;;5092866;28;20566;-89
2021/03/20 03:30:57;;;;;;;5.50;3.90;;;2.20;95.70;;;;;;5076354;28;20395;-90
2021/03/20 03:33:33;;;;;;;7.05;4.30;;;2.10;95.80;;;;;;5076069;28;20471;-89
2021/03/20 03:36:04;;;;;;;6.68;3.55;;;2.10;95.80;;;;;;5092986;28;20501;-89
2021/03/20 03:38:53;;;;;;;5.70;3.80;;;2.00;95.90;;;;;;5092782;28;20020;-89
2021/03/20 03:41:35;;;;;;;6.80;4.18;;;2.00;96.00;;;;;;5092859;28;20027;-89
2021/03/20 03:44:02;;;;;;;5.45;3.70;;;2.00;96.00;;;;;;5075675;28;20020;-89
2021/03/20 03:46:33;;;;;;;5.72;3.40;;;1.90;95.90;;;;;;5075754;28;20055;-88
2021/03/20 03:49:03;;;;;;;4.32;3.50;;;1.90;96.00;;;;;;5092705;28;20072;-89
2021/03/20 03:51:29;;;;;;;3.97;3.23;;;1.80;96.00;;;;;;5093638;28;20063;-89
2021/03/20 03:53:57;;;;;;;6.15;3.53;;;1.80;96.00;;;;;;5093490;28;20052;-89
2021/03/20 03:56:36;;;;;;;3.80;2.70;;;1.90;96.00;;;;;;5093575;28;20093;-89
2021/03/20 03:59:28;;;;;;;3.15;2.47;;;1.90;95.90;;;;;;5075598;28;20468;-89
2021/03/20 04:02:10;;;;;;;4.57;2.55;;;1.90;95.80;;;;;;5076226;28;20032;-89
2021/03/20 04:05:13;;;;;;;4.32;2.97;;;1.90;95.80;;;;;;5075710;28;20024;-89
2021/03/20 04:07:56;;;;;;;4.10;2.63;;;1.80;95.80;;;;;;5062131;28;20131;-90
2021/03/20 04:10:42;;;;;;;4.90;3.10;;;1.80;95.90;;;;;;5096932;28;20103;-90
2021/03/20 04:13:31;;;;;;;3.72;2.67;;;1.80;95.90;;;;;;5079086;28;20069;-89
2021/03/20 04:16:01;;;;;;;4.60;2.85;;;1.80;95.70;;;;;;5097180;28;20098;-89
2021/03/20 04:18:34;;;;;;;3.47;2.50;;;1.90;95.70;;;;;;5097314;28;20024;-89
2021/03/20 04:21:25;;;;;;;3.45;2.67;;;1.90;95.60;;;;;;5078770;28;20464;-90
2021/03/20 04:24:10;;;;;;;;;;;1.90;95.50;;;;;;5079297;28;20032;-89
2021/03/20 04:26:42;;;;;;;3.53;2.50;;;1.70;95.50;;;;;;5058239;28;19904;-90
2021/03/20 04:29:25;;;;;;;6.30;2.88;;;1.70;95.70;;;;;;5078987;28;20024;-90
2021/03/20 04:32:09;;;;;;;3.35;2.40;;;1.70;95.80;;;;;;5096837;28;20479;-89
2021/03/20 04:34:48;;;;;;;3.63;2.22;;;1.70;95.80;;;;;;5078801;28;20119;-89
2021/03/20 04:37:17;;;;;;;4.57;2.90;;;1.60;95.70;;;;;;5096417;28;20037;-89
2021/03/20 04:39:47;;;;;;;5.80;3.00;;;1.60;95.80;;;;;;5078428;28;20039;-89
2021/03/20 04:42:22;;;;;;;5.60;3.33;;;1.60;95.80;;;;;;5096452;28;20024;-89
2021/03/20 04:44:48;;;;;;;3.85;2.55;;;1.70;95.80;;;;;;5095347;28;20502;-89
2021/03/20 04:47:18;;;;;;;3.65;2.75;;;1.60;95.70;;;;;;5096250;28;20077;-89
2021/03/20 04:49:54;;;;;;;4.80;3.08;;;1.70;95.70;;;;;;5078664;28;20043;-89
2021/03/20 04:52:22;;;;;;;4.68;2.88;;;1.60;95.70;;;;;;5096442;28;20059;-89
2021/03/20 04:54:48;;;;;;;4.35;3.10;;;1.70;95.70;;;;;;5077998;28;20078;-90
2021/03/20 04:57:36;;;;;;;5.72;2.83;;;1.70;95.70;;;;;;5078386;28;20053;-89
2021/03/20 05:00:08;;;;;;;6.07;3.20;;;1.70;95.60;;;;;;5095077;28;20503;-89
2021/03/20 05:02:44;;;;;;;4.75;2.63;;;1.70;95.70;;;;;;5096040;28;20058;-90
2021/03/20 05:05:30;;;;;;;3.65;2.55;;;1.70;95.70;;;;;;5078506;28;20081;-89
2021/03/20 05:08:01;;;;;;;4.05;2.75;;;1.70;95.70;;;;;;5096193;28;20108;-89
2021/03/20 05:10:46;;;;;;;4.15;2.80;;;1.60;95.60;;;;;;5094774;28;20020;-89
2021/03/20 05:13:41;;;;;;;3.80;2.83;;;1.70;95.60;;;;;;5094902;28;20031;-89
2021/03/20 05:16:15;;;;;;;5.43;3.08;;;1.60;95.60;;;;;;5078308;28;20122;-90
2021/03/20 05:18:42;;;;;;;4.55;3.05;;;1.60;95.70;;;;;;5077828;28;20060;-89
2021/03/20 05:21:11;;;;;;;4.40;2.92;;;1.50;95.80;;;;;;5094935;28;20114;-88
2021/03/20 05:23:37;;;;;;;4.60;3.20;;;1.50;95.80;;;;;;5078209;28;20028;-90
2021/03/20 05:26:03;;;;;;;3.88;2.90;;;1.40;95.90;;;;;;5077851;28;20030;-89
2021/03/20 05:28:30;;;;;;;4.05;2.67;;;1.40;96.00;;;;;;5077925;28;20020;-89
2021/03/20 05:30:59;;;;;;;4.95;3.00;;;1.40;96.10;;;;;;5077775;28;20057;-89
2021/03/20 05:33:25;;;;;;;4.47;2.78;;;1.40;96.10;;;;;;5078126;28;20028;-89
2021/03/20 05:35:50;;;;;;;6.15;3.50;;;1.40;96.10;;;;;;5077385;28;20120;-88
2021/03/20 05:38:16;;;;;;;4.57;2.90;;;1.40;96.10;;;;;;5095804;28;20024;-90
2021/03/20 05:40:41;;;;;;;4.78;3.13;;;1.40;96.10;;;;;;5077608;28;20024;-88
2021/03/20 05:43:07;;;;;;;4.93;3.40;;;1.40;96.10;;;;;;5077696;28;20020;-88
2021/03/20 05:46:02;;;;;;;4.15;2.95;;;1.40;96.10;;;;;;5077079;28;20032;-89
2021/03/20 05:48:34;;;;;;;4.93;3.70;;;1.50;96.10;;;;;;5095345;28;20052;-89
2021/03/20 05:51:37;;;;;;;5.85;3.35;;;1.40;96.10;;;;;;5095572;28;20024;-89
2021/03/20 05:54:35;;;;;;;5.07;3.28;;;1.40;96.10;;;;;;5080282;28;20028;-89
2021/03/20 05:57:36;;;;;;;5.82;3.50;;;1.40;96.00;;;;;;5099168;28;20544;-89
2021/03/20 06:00:24;;;;;;;5.03;3.38;;;1.30;96.10;;;;;;5082420;28;20036;-89
2021/03/20 06:03:16;;;;;;;4.88;3.50;;;1.30;96.30;;;;;;5102916;28;20016;-88
2021/03/20 06:05:50;;;;;;;6.25;3.65;;;1.30;96.20;;;;;;5100567;28;20093;-89
2021/03/20 06:08:42;;;;;;;3.42;2.92;;;1.30;96.30;;;;;;5100987;28;20032;-88
2021/03/20 06:11:40;;;;;;;5.75;4.00;;;1.40;96.30;;;;;;5098047;28;20015;-91
2021/03/20 06:14:21;;;;;;;4.38;3.38;;;1.40;96.30;;;;;;5074234;28;20028;-90
2021/03/20 06:17:10;;;;;;;5.30;4.22;;;1.40;96.30;;;;;;5068374;28;20055;-89
2021/03/20 06:19:58;;;;;;;6.65;4.47;;;1.40;96.30;;;;;;5069079;28;20089;-90
2021/03/20 06:22:52;;;;;;;6.00;4.25;;;1.40;96.30;;;;;;5064279;28;20146;-89
2021/03/20 06:25:36;;;;;;;5.55;3.17;;;1.40;96.30;;;;;;5089377;28;20024;-89
2021/03/20 06:28:02;;;;;;;3.83;2.85;;;1.40;96.30;;;;;;5072386;28;20039;-89
2021/03/20 06:30:42;;;;;;;5.25;3.10;;;1.40;96.50;;;;;;5088123;28;20020;-89
2021/03/20 06:33:33;;;;;;;5.05;3.22;;;1.40;96.50;;;;;;5077038;28;20022;-90
2021/03/20 06:36:10;;;;;;;5.60;3.67;;;1.50;96.50;;;;;;5073031;28;20376;-89
2021/03/20 06:38:44;;;;;;;5.50;3.53;;;1.50;96.60;;;;;;5071952;28;20027;-88
2021/03/20 06:41:35;;;;;;;6.35;4.22;;;1.50;96.60;;;;;;5066460;28;20016;-89
2021/03/20 06:44:31;;;;;;;6.22;3.88;;;1.50;96.60;;;;;;5069341;28;20389;-91
2021/03/20 06:46:58;;;;;;;7.05;4.70;;;1.60;96.80;;;;;;5063173;28;20129;-90
2021/03/20 06:49:37;;;;;;;6.38;4.20;;;1.50;96.80;;;;;;5069460;28;20020;-91
2021/03/20 06:52:06;;;;;;;6.95;4.63;;;1.60;96.80;;;;;;5085567;28;20032;-87
2021/03/20 06:54:33;;;;;;;7.13;4.63;;;1.60;96.90;;;;;;5086694;28;20040;-92
2021/03/20 06:56:59;;;;;;;6.78;4.70;;;1.60;96.90;;;;;;5074421;28;20028;-89
2021/03/20 06:59:26;;;;;;;6.85;4.95;;;1.70;97.00;;;;;;5068171;28;20112;-90
2021/03/20 07:02:03;;;;;;;8.00;5.47;;;1.70;97.00;;;;;;5066437;28;20028;-90
2021/03/20 07:04:35;;;;;;;8.25;5.45;;;1.70;97.10;;;;;;5080738;28;20024;-91
2021/03/20 07:07:09;;;;;;;6.72;5.03;;;1.70;97.20;;;;;;5067538;28;20028;-91
2021/03/20 07:09:39;;;;;;;6.78;5.38;;;1.80;97.20;;;;;;5065996;28;20052;-91
2021/03/20 07:12:13;;;;;;;7.78;4.65;;;1.80;97.30;;;;;;5067527;28;20079;-88
2021/03/20 07:14:44;;;;;;;5.38;4.40;;;1.80;97.30;;;;;;5074616;28;20051;-91
2021/03/20 07:17:37;;;;;;;6.18;4.68;;;1.90;97.30;;;;;;5055977;28;20029;-89
2021/03/20 07:20:19;;;;;;;4.65;3.50;;;1.90;97.30;;;;;;5082303;28;20497;-89
2021/03/20 07:23:10;;;;;;;5.68;4.45;;;2.00;97.30;;;;;;5072907;28;20024;-90
2021/03/20 07:25:47;;;;;;;5.07;3.72;;;2.00;97.20;;;;;;5055950;28;20361;-91
2021/03/20 07:28:29;;;;;;;5.30;3.58;;;2.10;97.30;;;;;;5067398;28;20118;-88
2021/03/20 07:31:08;;;;;;;6.88;4.22;;;2.10;97.30;;;;;;5075952;28;20028;-89
2021/03/20 07:33:42;;;;;;;5.18;3.92;;;2.20;97.20;;;;;;5075911;28;20114;-89
2021/03/20 07:36:33;;;;;;;7.43;4.20;;;2.20;97.20;;;;;;5093657;28;20023;-89
2021/03/20 07:39:20;;;;;;;6.30;4.63;;;2.20;97.20;;;;;;5094122;28;20020;-89
2021/03/20 07:41:57;;;;;;;8.65;6.00;;;2.30;97.20;;;;;;5076341;28;20031;-89
2021/03/20 07:44:25;;;;;;;7.63;4.68;;;2.40;97.30;;;;;;5096689;28;20051;-88
2021/03/20 07:46:52;;;;;;;9.68;6.45;;;2.40;97.30;;;;;;5078853;28;20036;-88
2021/03/20 07:49:32;;;;;;;10.32;6.47;;;2.40;97.30;;;;;;5079067;28;20027;-90
2021/03/20 07:52:25;;;;;;;7.60;4.57;;;2.50;97.60;;;;;;5095935;28;20031;-88
2021/03/20 07:55:03;;;;;;;7.07;4.10;;;2.60;97.30;;;;;;5069833;28;20498;-87
2021/03/20 07:57:29;;;;;;;5.25;4.05;;;2.60;97.20;;;;;;5078748;28;20072;-89
2021/03/20 07:59:55;;;;;;;5.53;4.00;;;2.60;97.30;;;;;;5096922;28;20095;-87
2021/03/20 08:02:41;;;;;;;7.75;4.35;;;2.60;97.30;;;;;;5079244;28;20044;-90
2021/03/20 08:05:20;;;;;;;5.18;3.15;;;2.70;97.20;;;;;;5079633;28;20054;-90
2021/03/20 08:07:48;;;;;;;4.10;3.35;;;2.80;97.00;;;;;;5079030;28;20024;-90
2021/03/20 08:10:26;;;;;;;6.05;4.03;;;2.80;96.90;;;;;;5079295;28;20065;-90
2021/03/20 08:12:56;;;;;;;5.60;2.70;;;2.90;96.70;;;;;;5097458;28;20103;-91
2021/03/20 08:15:28;;;;;;;3.58;2.35;;;3.00;96.60;;;;;;5097095;28;20070;-94
2021/03/20 08:17:55;;;;;;;4.40;2.70;;;3.00;96.40;;;;;;5079906;28;20502;-94
2021/03/20 08:20:21;;;;;;;5.50;2.97;;;3.10;96.30;;;;;;5081801;28;20035;-91
2021/03/20 08:23:03;;;;;;;5.93;2.75;;;3.10;96.10;;;;;;5078974;28;20397;-89
2021/03/20 08:25:56;;;;;;;4.68;2.60;;;3.20;95.90;;;;;;5079231;28;20024;-91
2021/03/20 08:28:32;;;;;;;3.90;2.67;;;3.30;95.80;;;;;;5078945;28;20337;-88
2021/03/20 08:31:05;;;;;;;3.65;2.63;;;3.30;95.70;;;;;;5096706;28;20034;-90
2021/03/20 08:34:08;;;;;;;3.97;3.13;;;3.40;95.60;;;;;;5077461;28;20165;-90
2021/03/20 08:37:11;;;;;;;5.07;2.85;;;3.50;95.50;;;;;;5079525;28;20049;-90
2021/03/20 08:40:20;;;;;;;5.28;2.47;;;3.60;95.40;;;;;;5079084;28;20024;-90
2021/03/20 08:43:00;;;;;;;3.15;2.05;;;3.70;95.40;;;;;;5105092;28;20024;-91
2021/03/20 08:45:42;;;;;;;4.78;2.45;;;3.70;95.40;;;;;;5078560;28;20024;-90
2021/03/20 08:48:11;;;;;;;4.03;2.78;;;3.80;95.30;;;;;;5062211;28;20024;-90
2021/03/20 08:51:09;;;;;;;2.45;1.75;;;4.00;95.10;;;;;;5095444;28;20035;-92
2021/03/20 08:53:54;;;;;;;4.00;1.85;;;4.10;94.80;;;;;;5072779;28;20036;-89
2021/03/20 08:56:51;;;;;;;4.40;2.15;;;4.20;94.40;;;;;;5077511;28;20496;-88
2021/03/20 08:59:22;;;;;;;3.90;1.77;;;4.40;94.20;;;;;;5077572;28;20048;-88
2021/03/20 09:01:56;;;;;;;3.92;1.98;;;4.50;94.00;;;;;;5077674;28;20024;-87
2021/03/20 09:04:32;;;;;;;3.20;1.90;;;4.70;93.80;;;;;;5077611;28;20379;-87
2021/03/20 09:06:59;;;;;;;3.80;2.38;;;4.90;93.70;;;;;;5077313;28;20087;-88
2021/03/20 09:09:37;;;;;;;2.22;1.85;;;5.20;93.20;;;;;;5095262;28;20540;-87
2021/03/20 09:12:12;;;;;;;2.28;1.77;;;5.40;92.80;;;;;;5077056;28;20496;-89
2021/03/20 09:14:43;;;;;;;2.72;1.63;;;5.60;92.50;;;;;;5077247;28;20031;-89
2021/03/20 09:17:24;;;;;;;4.20;1.88;;;5.90;92.30;;;;;;5092769;28;20012;-88
2021/03/20 09:20:04;;;;;;;1.92;1.40;;;6.10;92.10;;;;;;5092820;28;20024;-89
2021/03/20 09:22:32;;;;;;;2.00;1.52;;;6.20;91.90;;;;;;5074833;28;20023;-90
2021/03/20 09:25:31;;;;;;;2.50;1.70;;;6.30;92.00;;;;;;5095099;28;20024;-90
2021/03/20 09:28:14;;;;;;;4.20;2.20;;;6.50;91.60;;;;;;5074031;28;20111;-89
2021/03/20 09:30:43;;;;;;;2.67;1.80;;;7.80;91.10;;;;;;5075967;28;20016;-89
2021/03/20 09:33:20;;;;;;;3.35;1.70;;;10.60;85.60;;;;;;5074515;28;20016;-89
2021/03/20 09:35:50;;;;;;;2.00;1.10;;;13.20;76.30;;;;;;5076718;28;20016;-89
2021/03/20 09:38:34;;;;;;;1.80;0.90;;;15.20;69.40;;;;;;5076637;28;20102;-89
2021/03/20 09:41:21;;;;;;;1.65;0.80;;;16.80;63.60;;;;;;5076782;28;20103;-89
2021/03/20 09:44:09;;;;;;;2.75;1.58;;;18.20;61.10;;;;;;5066304;28;20028;-89
2021/03/20 09:46:45;;;;;;;1.42;0.88;;;19.10;55.10;;;;;;5076618;28;20176;-91
2021/03/20 09:49:10;;;;;;;1.25;0.80;;;19.40;52.00;;;;;;5074253;28;20020;-87
2021/03/20 09:51:48;;;;;;;1.35;0.68;;;20.20;52.10;;;;;;5076813;28;20032;-89
2021/03/20 09:54:25;;;;;;;2.00;0.90;;;20.70;50.30;;;;;;5091899;28;20020;-87
2021/03/20 09:56:51;;;;;;;1.55;0.90;;;21.30;48.70;;;;;;5091514;28;20019;-89
2021/03/20 09:59:29;;;;;;;1.83;0.77;;;21.80;47.80;;;;;;5075770;28;20107;-89
2021/03/20 10:01:57;;;;;;;1.95;0.80;;;22.40;46.80;;;;;;5073804;28;20023;-89
2021/03/20 10:04:33;;;;;;;1.30;0.90;;;23.10;46.50;;;;;;5075556;28;20036;-89
2021/03/20 10:07:21;;;;;;;1.27;0.75;;;23.90;42.20;;;;;;5076354;28;20012;-89
2021/03/20 10:10:11;;;;;;;1.02;0.70;;;24.30;39.30;;;;;;5075989;28;20095;-89
2021/03/20 10:12:39;;;;;;;1.25;0.77;;;24.00;38.80;;;;;;5074520;28;20055;-90
2021/03/20 10:15:17;;;;;;;1.35;0.52;;;23.50;39.40;;;;;;5073759;28;20019;-90
2021/03/20 10:18:20;;;;;;;1.00;0.80;;;24.00;40.80;;;;;;5075802;28;20059;-88
2021/03/20 10:20:51;;;;;;;1.20;0.60;;;24.60;39.20;;;;;;5075701;28;20103;-89
2021/03/20 10:23:53;;;;;;;1.45;0.85;;;24.90;39.60;;;;;;5075916;28;20062;-91
2021/03/20 10:26:24;;;;;;;0.80;0.63;;;25.50;38.90;;;;;;5074689;28;20073;-90
2021/03/20 10:28:58;;;;;;;1.33;0.82;;;26.40;38.10;;;;;;5073000;28;20375;-91
2021/03/20 10:31:25;;;;;;;3.67;1.00;;;26.40;36.00;;;;;;5075512;28;20483;-89
2021/03/20 10:34:04;;;;;;;1.75;0.90;;;26.90;34.10;;;;;;5075466;28;20024;-89
2021/03/20 10:36:39;;;;;;;2.37;1.30;;;26.60;32.60;;;;;;5091240;28;20020;-89
2021/03/20 10:39:23;;;;;;;2.20;1.25;;;26.20;32.50;;;;;;5075533;28;20415;-89
2021/03/20 10:41:50;;;;;;;1.23;0.90;;;25.10;30.30;;;;;;5072811;28;20016;-90
2021/03/20 10:44:26;;;;;;;2.30;1.45;;;24.20;31.60;;;;;;5093552;28;20472;-89
2021/03/20 10:47:19;;;;;;;1.70;1.20;;;24.10;32.50;;;;;;5072908;28;20094;-89
2021/03/20 10:49:55;;;;;;;1.85;1.27;;;23.40;32.40;;;;;;5074965;28;20027;-89
2021/03/20 10:52:26;;;;;;;2.08;1.35;;;23.30;32.10;;;;;;5075353;28;20031;-89
2021/03/20 10:54:55;;;;;;;1.23;0.70;;;23.50;32.50;;;;;;5073051;28;20025;-90
2021/03/20 10:57:25;;;;;;;2.17;1.20;;;24.60;33.60;;;;;;5093483;28;20468;-90
2021/03/20 10:59:51;;;;;;;2.95;1.20;;;24.60;30.30;;;;;;5072958;28;20024;-88
2021/03/20 11:02:28;;;;;;;1.63;0.80;;;24.20;31.20;;;;;;5093106;28;20024;-90
2021/03/20 11:05:14;;;;;;;1.17;0.90;;;23.80;32.40;;;;;;5091227;28;20047;-87
2021/03/20 11:07:48;;;;;;;1.27;0.85;;;24.40;34.70;;;;;;5075256;28;20468;-90
2021/03/20 11:10:14;;;;;;;1.70;1.10;;;25.00;32.90;;;;;;5075547;28;20377;-91
2021/03/20 11:12:40;;;;;;;2.03;1.45;;;25.10;31.00;;;;;;5075713;28;20540;-90
2021/03/20 11:15:06;;;;;;;2.20;1.30;;;23.60;30.20;;;;;;5094025;28;20031;-91
2021/03/20 11:17:33;;;;;;;2.30;1.60;;;21.90;31.60;;;;;;5080393;28;20024;-90
2021/03/20 11:20:15;;;;;;;1.65;1.10;;;20.40;33.00;;;;;;5099244;28;20019;-89
2021/03/20 11:22:41;;;;;;;2.90;1.50;;;20.20;35.40;;;;;;5079851;28;20013;-94
2021/03/20 11:25:15;;;;;;;1.98;1.30;;;20.10;34.40;;;;;;5081348;28;20079;-89
2021/03/20 11:27:41;;;;;;;2.47;1.23;;;20.60;34.80;;;;;;5078864;28;20023;-88
2021/03/20 11:30:15;;;;;;;1.50;1.20;;;20.70;34.50;;;;;;5096719;28;20455;-88
2021/03/20 11:32:44;;;;;;;2.72;1.40;;;21.10;34.90;;;;;;5078145;28;20023;-88
2021/03/20 11:35:31;;;;;;;1.98;1.52;;;21.70;35.00;;;;;;5064483;28;20433;-87
2021/03/20 11:38:01;;;;;;;2.15;1.25;;;22.00;34.10;;;;;;5078422;28;20085;-88
2021/03/20 11:40:34;;;;;;;3.92;1.30;;;22.60;33.00;;;;;;5074199;28;20400;-88
2021/03/20 11:43:04;;;;;;;1.63;0.90;;;22.40;32.80;;;;;;5065965;28;20025;-91
2021/03/20 11:45:36;;;;;;;1.48;1.02;;;22.60;33.30;;;;;;5066595;28;20024;-90
2021/03/20 11:48:34;;;;;;;1.33;0.80;;;23.30;34.00;;;;;;5079416;28;20446;-89
2021/03/20 11:51:02;;;;;;;1.58;1.00;;;24.60;33.50;;;;;;5041776;28;20111;-90
2021/03/20 11:53:33;;;;;;;1.55;0.95;;;25.20;31.60;;;;;;5066944;28;20020;-89
2021/03/20 11:55:59;;;;;;;1.83;0.90;;;24.20;30.60;;;;;;5078005;28;20069;-88
2021/03/20 11:58:34;;;;;;;1.48;0.90;;;23.70;32.20;;;;;;5077465;28;20499;-88
2021/03/20 12:01:21;;;;;;;1.90;1.70;;;24.00;32.90;;;;;;5095935;28;20052;-88
2021/03/20 12:03:49;;;;;;;2.03;1.35;;;24.20;30.00;;;;;;5071665;28;20421;-87
2021/03/20 12:06:17;;;;;;;3.33;2.08;;;23.30;30.80;;;;;;5077666;28;20017;-88
2021/03/20 12:08:47;;;;;;;2.63;1.55;;;22.70;30.70;;;;;;5095874;28;20471;-88
2021/03/20 12:11:19;;;;;;;1.67;1.10;;;23.50;32.00;;;;;;5095574;28;20024;-89
2021/03/20 12:13:56;;;;;;;2.50;2.30;;;24.60;31.40;;;;;;5077144;28;20446;-88
2021/03/20 12:16:39;;;;;;;1.58;1.17;;;24.50;29.60;;;;;;5077218;28;20043;-89
2021/03/20 12:19:09;;;;;;;1.42;1.33;;;24.10;31.10;;;;;;5092828;28;20063;-88
2021/03/20 12:21:50;;;;;;;;;;;23.60;31.70;;;;;;5098562;28;20020;-88
2021/03/20 12:24:23;;;;;;;1.92;1.73;;;23.30;31.10;;;;;;5093786;28;20425;-89
2021/03/20 12:26:49;;;;;;;1.70;1.55;;;23.20;30.10;;;;;;5077733;28;20103;-90
2021/03/20 12:29:35;;;;;;;2.17;1.20;;;22.50;30.70;;;;;;5087684;28;20134;-89
2021/03/20 12:32:34;;;;;;;1.92;1.45;;;22.60;31.90;;;;;;5086950;28;20022;-93
2021/03/20 12:35:17;;;;;;;2.67;1.70;;;22.60;30.30;;;;;;5076681;28;20020;-91
2021/03/20 12:37:47;;;;;;;1.90;1.70;;;22.20;30.90;;;;;;5074890;28;20025;-94
2021/03/20 12:40:14;;;;;;;2.72;1.60;;;21.70;30.80;;;;;;5074003;28;20063;-94
2021/03/20 12:42:40;;;;;;;1.30;1.00;;;21.50;32.90;;;;;;5069502;28;20039;-92
2021/03/20 12:45:07;;;;;;;2.72;1.50;;;22.90;33.10;;;;;;5077126;28;20399;-91
2021/03/20 12:47:33;;;;;;;2.22;1.30;;;23.30;31.50;;;;;;5067078;28;20052;-91
2021/03/20 12:49:59;;;;;;;2.63;1.00;;;23.20;30.80;;;;;;5075254;28;20036;-89
2021/03/20 12:52:26;;;;;;;1.90;1.33;;;23.10;31.50;;;;;;5074976;28;20111;-89
2021/03/20 12:54:55;;;;;;;1.73;1.00;;;22.90;30.50;;;;;;5075250;28;20028;-88
2021/03/20 12:57:22;;;;;;;1.60;1.25;;;23.80;31.80;;;;;;5071794;28;20437;-87
2021/03/20 12:59:48;;;;;;;2.10;1.20;;;23.20;29.90;;;;;;5072358;28;20039;-87
2021/03/20 13:02:14;;;;;;;2.13;1.58;;;23.30;31.30;;;;;;5067103;28;20028;-87
2021/03/20 13:04:40;;;;;;;2.38;2.00;;;23.40;30.10;;;;;;5069804;28;20033;-88
2021/03/20 13:07:07;;;;;;;1.58;1.00;;;23.50;30.10;;;;;;5081557;28;20038;-89
2021/03/20 13:09:33;;;;;;;1.80;1.15;;;23.30;31.50;;;;;;5080437;28;20506;-89
2021/03/20 13:11:59;;;;;;;1.33;1.02;;;23.20;30.40;;;;;;5073765;28;20024;-87
2021/03/20 13:14:25;;;;;;;2.00;1.80;;;23.40;30.90;;;;;;5076147;28;20481;-87
2021/03/20 13:16:50;;;;;;;1.88;1.52;;;24.00;30.20;;;;;;5062682;28;20044;-91
2021/03/20 13:19:16;;;;;;;2.38;1.65;;;23.10;29.20;;;;;;5071095;28;20028;-90
2021/03/20 13:21:41;;;;;;;2.97;1.60;;;22.50;30.60;;;;;;5066989;28;20111;-91
2021/03/20 13:24:07;;;;;;;1.83;1.70;;;22.80;31.00;;;;;;5072245;28;20039;-91
2021/03/20 13:26:33;;;;;;;1.27;1.08;;;22.60;31.90;;;;;;5082472;28;20032;-88
2021/03/20 13:28:59;;;;;;;2.10;1.73;;;22.60;33.80;;;;;;5064036;28;20727;-88
2021/03/20 13:31:25;;;;;;;2.15;1.92;;;22.70;31.50;;;;;;5064086;28;20373;-88
2021/03/20 13:33:50;;;;;;;2.30;1.80;;;22.10;30.50;;;;;;5062441;28;20023;-93
2021/03/20 13:36:16;;;;;;;1.67;1.25;;;21.00;31.90;;;;;;5103405;28;20023;-91
2021/03/20 13:38:42;;;;;;;2.50;2.08;;;20.50;32.60;;;;;;5087930;28;20052;-94